Nearby METAR Reports

 

KPAE - Everett, Washington, USA
Distance from station: NW 17mi, 28km
Updated: Tue, 21-May-2019 3:32am PDT
Light rain, Overcast
Light rain, Overcast
 Wind from calm
Wind: Calm
Temperature: 48°F , 9°C
Dew Point: 46°F , 8°C
Humidity: 94%
Barometer: 29.71 inHg , 1006.1 hPa
Summary: Light rain
Clouds: Overcast
Visibility: 10 miles , 16 km
Cloud details: Few Clouds 500 ft
Overcast 6500 ft
2019/05/21 10:32 KPAE 211032Z 00000KT 10SM -RA FEW005 OVC065 09/08 A2971 RMK AO2 P0000 T00890083
KBFI - Seattle/Boeing, Washington, USA
Distance from station: SW 18mi, 29km
Updated: Tue, 21-May-2019 2:53am PDT
Overcast
Overcast
 Wind from calm
Wind: Calm
Temperature: 52°F , 11°C
Dew Point: 46°F , 8°C
Humidity: 82%
Barometer: 29.71 inHg , 1006.1 hPa
Clouds: Overcast
Visibility: 10 miles , 16 km
Cloud details: Few Clouds 6000 ft
Overcast 8000 ft
2019/05/21 09:53 KBFI 210953Z 00000KT 10SM FEW060 OVC080 11/08 A2971 RMK AO2 SLP059 T01110078
 
KRNT - Renton, Washington, USA
Distance from station: SSW 18mi, 29km
Updated: Tue, 21-May-2019 2:53am PDT
Overcast
Overcast
 Wind from calm
Wind: Calm
Temperature: 52°F , 11°C
Dew Point: 48°F , 9°C
Humidity: 88%
Barometer: 29.70 inHg , 1005.8 hPa
Clouds: Overcast
Visibility: 7 miles , 11 km
Cloud details: Overcast 7000 ft
2019/05/21 09:53 KRNT 210953Z AUTO 00000KT 7SM OVC070 11/09 A2970 RMK AO2 SLP063 T01060089
KSEA - Seattle/Metro, Washington, USA
Distance from station: SW 24mi, 38km
Updated: Tue, 21-May-2019 2:53am PDT
Light rain, Overcast
Light rain, Overcast
 Wind from NE
Wind: NE 6 mph , 9 km/h
Temperature: 52°F , 11°C
Dew Point: 46°F , 8°C
Humidity: 82%
Barometer: 29.70 inHg , 1005.8 hPa
Summary: Light rain
Clouds: Overcast
Visibility: 10 miles , 16 km
Cloud details: Few Clouds 4000 ft
Overcast 6000 ft
2019/05/21 09:53 KSEA 210953Z 04005KT 10SM -RA FEW040 OVC060 11/08 A2970 RMK AO2 RAB50 SLP062 P0000 T01060078
 
KAWO - Arlington Muni, Washington, USA
Distance from station: NNW 31mi, 50km
Updated: Tue, 21-May-2019 2:56am PDT
Overcast
Overcast
 Wind from WNW
Wind: WNW 5 mph , 7 km/h
Temperature: 48°F , 9°C
Wind Chill: 46°F , 8°C
Dew Point: 46°F , 8°C
Humidity: 94%
Barometer: 29.72 inHg , 1006.4 hPa
Clouds: Overcast
Visibility: 10 miles , 16 km
Cloud details: Overcast 7500 ft
2019/05/21 09:56 KAWO 210956Z AUTO 30004KT 10SM OVC075 09/08 A2972 RMK AO2 SLP067 T00890083 $
KPWT - Bremerton Ntnl, Washington, USA
Distance from station: WSW 37mi, 60km
Updated: Tue, 21-May-2019 2:56am PDT
Light rain, Few clouds
Light rain, Few clouds
 Wind from NE
Wind: NE 3 mph , 6 km/h
Temperature: 48°F , 9°C
Dew Point: 45°F , 7°C
Humidity: 87%
Barometer: 29.71 inHg , 1006.1 hPa
Summary: Light rain
Clouds: Few Clouds
Visibility: 10 miles , 16 km
Cloud details: Few Clouds 6000 ft
2019/05/21 09:56 KPWT 210956Z AUTO 04003KT 10SM -RA FEW060 09/07 A2971 RMK AO2 RAB19 SLP078 P0000 T00940072
 
KTIW - Tacoma, Washington, USA
Distance from station: SW 41mi, 66km
Updated: Tue, 21-May-2019 2:53am PDT
Light rain, Overcast
Light rain, Overcast
 Wind from N
Wind: N 6 mph , 9 km/h
Temperature: 48°F , 9°C
Wind Chill: 45°F , 7°C
Dew Point: 45°F , 7°C
Humidity: 87%
Barometer: 29.70 inHg , 1005.8 hPa
Summary: Light rain
Clouds: Overcast
Visibility: 10 miles , 16 km
Cloud details: Few Clouds 7000 ft
Overcast 10000 ft
2019/05/21 09:53 KTIW 210953Z AUTO 01005KT 10SM -RA FEW070 OVC100 09/07 A2970 RMK AO2 RAB48 SLP058 P0000 T00940072
KSMP - Stampede Pass, Washington, USA
Distance from station: SE 45mi, 72km
Updated: Tue, 21-May-2019 2:56am PDT
Overcast
Overcast
 Wind from WSW
Wind: WSW 5 mph , 7 km/h
Temperature: 37°F , 3°C
Wind Chill: 33°F , 1°C
Dew Point: 36°F , 2°C
Humidity: 93%
Barometer: 29.66 inHg , 1004.4 hPa
Clouds: Overcast
Visibility: 7 miles , 11 km
Cloud details: Overcast 2500 ft
2019/05/21 09:56 KSMP 210956Z AUTO 25004KT 7SM OVC025 03/02 A2966 RMK AO2 UPE06B31E44 SLP052 P0000 T00280017
 
KPLU - Puyallup/Thun, Washington, USA
Distance from station: SSW 45mi, 73km
Updated: Tue, 21-May-2019 3:35am PDT
Overcast
Overcast
 Wind from calm
Wind: Calm
Temperature: 48°F , 9°C
Dew Point: 48°F , 9°C
Humidity: 100%
Barometer: 29.69 inHg , 1005.4 hPa
Clouds: Overcast
Visibility: 10 miles , 16 km
Cloud details: Few Clouds 3700 ft
Mostly cloudy 5000 ft
Overcast 7500 ft
2019/05/21 10:35 KPLU 211035Z AUTO 00000KT 10SM FEW037 BKN050 OVC075 09/09 A2969 RMK AO2
KTCM - Tacoma/Mc Chord, Washington, USA
Distance from station: SSW 47mi, 76km
Updated: Tue, 21-May-2019 2:58am PDT
Clear
Clear
 Wind from calm
Wind: Calm
Temperature: 50°F , 10°C
Dew Point: 50°F , 10°C
Humidity: 100%
Barometer: 29.70 inHg , 1005.8 hPa
Clouds: Clear
Visibility: 10 miles , 16 km
2019/05/21 09:58 KTCM 210958Z AUTO 00000KT 10SM CLR 10/10 A2970 RMK AO2 SLP061 T01010099 RVRNO $